Gulf Crest, Alabama
Current Conditions -  °F | °C
As of 5:56 PM on Monday 20 Oct 2014 (Local Time) from KMOB Reporting Station
Broken Clouds Broken Clouds  
Wind Chill: 71°   Ceiling: 25000
Heat Index: 71°   Visibility: 10mi
Dew Point: 50°   Wind: 3mph
Humidity: 47%   Direction: 320°NW
Pressure: 30"   Gusts: NA
Location:  30.9846°N, 88.1229°W
Report Text: KMOB 202256Z 32003KT 10SM SCT120 BKN250 22/10 A3000 RMK AO2 SLP156 T02170100
Loading
Personal Weather Stations






























Interactive Weather Map
Tropical Storm Tracking
New forecast layout! Learn more

10-Day Weather Forecast

Advertisements
Track Severe Weather on mobile